KKZ weather

Kaoh Kong Airport
Kaoh Kong, Kach Kong, Cambodia

Public forecast

Using degrees Celsius for public forecast. Weather courtesy of forecast.io.

METAR (pilot weather report)

Report is more than 6 hours old.

Closest report is Trat Airport, 56.2 nm (104.1 km) NW. Retrieved 2019/02/16 11:00 UTC (9 hours ago):

VTBO 161100Z 21007KT 8000 FEW020 28/22 Q1012

TAF (pilot weather forecast)

Closest forecast is Trat Airport, 56.2 nm (104.1 km) NW. Retrieved 2019/02/16 18:00 UTC (2 hours ago):

TAF VTBO 161700Z 1618/1718 00000KT 5000 BR FEW020 BECMG 1702/1704 14008KT 8000 BECMG 1707/1709 22008KT